createdAt,value
2016-05-13T00:00:46.605Z,0
2016-05-13T00:01:43.748Z,0
2016-05-13T00:02:46.532Z,0
2016-05-13T00:03:47.441Z,0
2016-05-13T00:04:43.585Z,0
2016-05-13T00:05:46.603Z,0
2016-05-13T00:06:43.933Z,0
2016-05-13T00:07:43.639Z,0
2016-05-13T00:08:44.002Z,0
2016-05-13T00:09:46.191Z,0
2016-05-13T00:10:43.304Z,0
2016-05-13T00:11:46.260Z,0
2016-05-13T00:12:43.075Z,0
2016-05-13T00:13:43.202Z,0
2016-05-13T00:14:46.143Z,0
2016-05-13T00:15:42.942Z,0
2016-05-13T00:16:45.913Z,0
2016-05-13T00:17:49.478Z,0
2016-05-13T00:18:42.981Z,0
2016-05-13T00:19:42.907Z,0
2016-05-13T00:20:42.831Z,0
2016-05-13T00:21:45.927Z,0
2016-05-13T00:22:42.773Z,0
2016-05-13T00:23:49.151Z,0
2016-05-13T00:24:45.873Z,0
2016-05-13T00:25:45.609Z,0
2016-05-13T00:26:54.581Z,0
2016-05-13T00:27:48.537Z,0
2016-05-13T00:28:48.524Z,0
2016-05-13T00:29:54.964Z,0
2016-05-13T00:30:45.436Z,0
2016-05-13T00:31:48.438Z,0
2016-05-13T00:32:42.614Z,0
2016-05-13T00:33:42.256Z,0
2016-05-13T00:34:42.416Z,0
2016-05-13T00:35:48.386Z,0
2016-05-13T00:36:44.967Z,0
2016-05-13T00:37:42.079Z,0
2016-05-13T00:38:48.051Z,0
2016-05-13T00:39:45.007Z,0
2016-05-13T00:40:42.135Z,0
2016-05-13T00:41:45.169Z,0
2016-05-13T00:42:44.390Z,0
2016-05-13T00:43:41.799Z,0
2016-05-13T00:44:44.629Z,0
2016-05-13T00:45:45.070Z,0
2016-05-13T00:46:44.666Z,0
2016-05-13T00:47:42.685Z,0
2016-05-13T00:48:44.421Z,0
2016-05-13T00:49:44.221Z,0
2016-05-13T00:50:41.348Z,0
2016-05-13T00:51:41.757Z,0
2016-05-13T00:52:44.620Z,0
2016-05-13T00:53:44.419Z,0
2016-05-13T00:54:41.298Z,0
2016-05-13T00:55:44.300Z,0
2016-05-13T00:56:41.271Z,0
2016-05-13T00:57:43.884Z,0
2016-05-13T00:58:44.136Z,0
2016-05-13T00:59:44.264Z,0
2016-05-13T01:00:44.235Z,0
2016-05-13T01:01:40.858Z,0
2016-05-13T01:02:44.638Z,0
2016-05-13T01:03:40.998Z,0
2016-05-13T01:04:47.012Z,0
2016-05-13T01:05:40.824Z,0
2016-05-13T01:06:40.737Z,0
2016-05-13T01:07:40.959Z,0
2016-05-13T01:08:40.947Z,0
2016-05-13T01:09:43.778Z,0
2016-05-13T01:10:43.874Z,0
2016-05-13T01:11:41.030Z,0
2016-05-13T01:12:40.929Z,0
2016-05-13T01:13:40.765Z,0
2016-05-13T01:14:46.962Z,0
2016-05-13T01:15:43.891Z,0
2016-05-13T01:16:52.664Z,0
2016-05-13T01:17:40.684Z,0
2016-05-13T01:18:40.532Z,0
2016-05-13T01:19:40.536Z,0
2016-05-13T01:20:40.307Z,0
2016-05-13T01:21:40.624Z,0
2016-05-13T01:22:40.190Z,0
2016-05-13T01:23:43.396Z,0
2016-05-13T01:24:46.478Z,0
2016-05-13T01:25:43.451Z,0
2016-05-13T01:26:43.031Z,0
2016-05-13T01:27:43.145Z,0
2016-05-13T01:28:45.944Z,0
2016-05-13T01:29:43.103Z,0
2016-05-13T01:30:39.982Z,0
2016-05-13T01:31:43.047Z,0
2016-05-13T01:32:43.221Z,0
2016-05-13T01:33:40.396Z,0
2016-05-13T01:34:39.820Z,0
2016-05-13T01:35:39.792Z,0
2016-05-13T01:36:42.421Z,0
2016-05-13T01:37:39.751Z,0
2016-05-13T01:38:42.863Z,0
2016-05-13T01:39:42.756Z,0
2016-05-13T01:40:48.556Z,0
2016-05-13T01:41:42.527Z,0
2016-05-13T01:42:45.420Z,0
2016-05-13T01:43:42.564Z,0
2016-05-13T01:44:42.613Z,0
2016-05-13T01:45:42.444Z,0
2016-05-13T01:46:39.134Z,0
2016-05-13T01:47:39.746Z,0
2016-05-13T01:48:42.203Z,0
2016-05-13T01:49:42.174Z,0
2016-05-13T01:50:39.489Z,0
2016-05-13T01:51:39.148Z,0
2016-05-13T01:52:39.119Z,0
2016-05-13T01:53:38.825Z,0
2016-05-13T01:54:41.764Z,0
2016-05-13T01:55:42.033Z,0
2016-05-13T01:56:47.833Z,0
2016-05-13T01:57:44.789Z,0
2016-05-13T01:58:38.714Z,0
2016-05-13T01:59:41.685Z,0
2016-05-13T02:00:44.656Z,0
2016-05-13T02:01:56.830Z,0
2016-05-13T02:02:41.958Z,0
2016-05-13T02:03:38.336Z,0
2016-05-13T02:04:41.464Z,0
2016-05-13T02:05:41.404Z,0
2016-05-13T02:06:38.344Z,0
2016-05-13T02:07:41.190Z,0
2016-05-13T02:08:38.257Z,0
2016-05-13T02:09:38.368Z,0
2016-05-13T02:10:41.387Z,0
2016-05-13T02:11:41.233Z,0
2016-05-13T02:12:43.954Z,0
2016-05-13T02:13:44.050Z,0
2016-05-13T02:14:37.818Z,0
2016-05-13T02:15:40.838Z,0
2016-05-13T02:16:37.887Z,0
2016-05-13T02:17:38.124Z,0
2016-05-13T02:18:37.814Z,0
2016-05-13T02:19:37.753Z,0
2016-05-13T02:20:37.538Z,0
2016-05-13T02:21:37.666Z,0
2016-05-13T02:22:37.684Z,0
2016-05-13T02:23:40.562Z,0
2016-05-13T02:24:40.767Z,0
2016-05-13T02:25:37.489Z,0
2016-05-13T02:26:37.461Z,0
2016-05-13T02:27:43.432Z,0
2016-05-13T02:28:40.435Z,0
2016-05-13T02:29:37.500Z,0
2016-05-13T02:30:40.347Z,0
2016-05-13T02:31:40.208Z,0
2016-05-13T02:32:40.492Z,0
2016-05-13T02:33:37.151Z,0
2016-05-13T02:34:37.060Z,0
2016-05-13T02:35:37.218Z,0
2016-05-13T02:36:37.112Z,0
2016-05-13T02:37:36.788Z,0
2016-05-13T02:38:36.774Z,0
2016-05-13T02:39:42.543Z,0
2016-05-13T02:40:36.638Z,0
2016-05-13T02:41:45.860Z,0
2016-05-13T02:42:42.738Z,0
2016-05-13T02:43:37.334Z,0
2016-05-13T02:44:39.681Z,0
2016-05-13T02:45:40.168Z,0
2016-05-13T02:46:36.514Z,0
2016-05-13T02:47:36.814Z,0
2016-05-13T02:48:39.676Z,0
2016-05-13T02:49:36.226Z,0
2016-05-13T02:50:39.229Z,0
2016-05-13T02:51:42.887Z,0
2016-05-13T02:52:35.967Z,0
2016-05-13T02:53:42.408Z,0
2016-05-13T02:54:42.051Z,0
2016-05-13T02:55:36.116Z,0
2016-05-13T02:56:36.042Z,0
2016-05-13T02:57:35.841Z,0
2016-05-13T02:58:38.937Z,0
2016-05-13T02:59:38.939Z,0
2016-05-13T03:00:35.864Z,0
2016-05-13T03:01:38.820Z,0
2016-05-13T03:02:40.010Z,0
2016-05-13T03:03:38.747Z,0
2016-05-13T03:04:38.719Z,0
2016-05-13T03:05:38.472Z,0
2016-05-13T03:06:35.865Z,0
2016-05-13T03:07:35.555Z,0
2016-05-13T03:08:35.511Z,0
2016-05-13T03:09:41.311Z,0
2016-05-13T03:10:38.438Z,0
2016-05-13T03:11:38.207Z,0
2016-05-13T03:12:44.006Z,0
2016-05-13T03:13:38.274Z,0
2016-05-13T03:14:41.434Z,0
2016-05-13T03:15:35.170Z,4
2016-05-13T03:16:37.985Z,4
2016-05-13T03:17:38.285Z,4
2016-05-13T03:18:34.897Z,0
2016-05-13T03:19:35.243Z,0
2016-05-13T03:20:37.949Z,4
2016-05-13T03:21:37.952Z,4
2016-05-13T03:22:38.268Z,4
2016-05-13T03:23:37.817Z,4
2016-05-13T03:24:34.757Z,4
2016-05-13T03:25:37.728Z,4
2016-05-13T03:26:37.872Z,8
2016-05-13T03:27:37.609Z,8
2016-05-13T03:28:34.986Z,8
2016-05-13T03:29:37.380Z,8
2016-05-13T03:30:37.320Z,12
2016-05-13T03:31:34.635Z,12
2016-05-13T03:32:37.107Z,12
2016-05-13T03:33:34.172Z,16
2016-05-13T03:34:34.128Z,20
2016-05-13T03:35:40.287Z,20
2016-05-13T03:36:34.258Z,24
2016-05-13T03:37:37.386Z,24
2016-05-13T03:38:33.998Z,28
2016-05-13T03:39:34.235Z,32
2016-05-13T03:40:36.862Z,36
2016-05-13T03:41:34.022Z,36
2016-05-13T03:42:36.899Z,40
2016-05-13T03:43:39.887Z,44
2016-05-13T03:44:33.702Z,48
2016-05-13T03:45:36.642Z,52
2016-05-13T03:46:33.941Z,56
2016-05-13T03:47:36.538Z,60
2016-05-13T03:48:33.868Z,64
2016-05-13T03:49:33.574Z,68
2016-05-13T03:50:33.562Z,72
2016-05-13T03:51:33.736Z,80
2016-05-13T03:52:39.301Z,88
2016-05-13T03:53:33.804Z,96
2016-05-13T03:54:33.354Z,104
2016-05-13T03:55:33.340Z,112
2016-05-13T03:56:33.281Z,124
2016-05-13T03:57:33.080Z,132
2016-05-13T03:58:36.192Z,144
2016-05-13T03:59:32.992Z,148
2016-05-13T04:00:39.088Z,152
2016-05-13T04:01:33.029Z,164
2016-05-13T04:02:35.734Z,172
2016-05-13T04:03:42.003Z,180
2016-05-13T04:04:33.380Z,192
2016-05-13T04:05:32.852Z,200
2016-05-13T04:06:32.838Z,212
2016-05-13T04:07:32.764Z,224
2016-05-13T04:08:35.735Z,240
2016-05-13T04:09:35.691Z,252
2016-05-13T04:10:32.615Z,260
2016-05-13T04:11:32.555Z,268
2016-05-13T04:12:35.855Z,280
2016-05-13T04:13:32.483Z,284
2016-05-13T04:14:31.954Z,292
2016-05-13T04:15:32.394Z,304
2016-05-13T04:16:32.396Z,312
2016-05-13T04:17:35.946Z,324
2016-05-13T04:18:35.309Z,336
2016-05-13T04:19:35.077Z,348
2016-05-13T04:20:32.174Z,360
2016-05-13T04:21:37.895Z,368
2016-05-13T04:22:32.117Z,380
2016-05-13T04:23:32.025Z,396
2016-05-13T04:24:31.981Z,408
2016-05-13T04:25:31.967Z,420
2016-05-13T04:26:41.112Z,436
2016-05-13T04:27:31.864Z,448
2016-05-13T04:28:31.820Z,464
2016-05-13T04:29:31.573Z,476
2016-05-13T04:30:31.684Z,484
2016-05-13T04:31:34.672Z,492
2016-05-13T04:32:31.846Z,504
2016-05-13T04:33:31.583Z,516
2016-05-13T04:34:31.508Z,524
2016-05-13T04:35:43.542Z,536
2016-05-13T04:36:31.419Z,544
2016-05-13T04:37:31.375Z,556
2016-05-13T04:38:34.925Z,568
2016-05-13T04:39:31.288Z,576
2016-05-13T04:40:37.243Z,596
2016-05-13T04:41:31.152Z,604
2016-05-13T04:42:31.123Z,620
2016-05-13T04:43:31.094Z,636
2016-05-13T04:44:33.878Z,648
2016-05-13T04:45:31.007Z,656
2016-05-13T04:46:33.947Z,664
2016-05-13T04:47:30.730Z,672
2016-05-13T04:48:30.857Z,680
2016-05-13T04:49:33.798Z,684
2016-05-13T04:50:30.659Z,688
2016-05-13T04:51:30.725Z,692
2016-05-13T04:52:30.666Z,696
2016-05-13T04:53:30.606Z,696
2016-05-13T04:54:30.577Z,700
2016-05-13T04:55:30.517Z,708
2016-05-13T04:56:33.661Z,712
2016-05-13T04:57:30.273Z,720
2016-05-13T04:58:30.229Z,728
2016-05-13T04:59:33.575Z,728
2016-05-13T05:00:39.547Z,728
2016-05-13T05:01:33.267Z,732
2016-05-13T05:02:30.614Z,732
2016-05-13T05:03:42.367Z,748
2016-05-13T05:04:30.089Z,752
2016-05-13T05:05:33.092Z,772
2016-05-13T05:06:32.875Z,784
2016-05-13T05:07:30.019Z,788
2016-05-13T05:08:36.193Z,788
2016-05-13T05:09:36.055Z,804
2016-05-13T05:10:35.854Z,812
2016-05-13T05:11:29.795Z,824
2016-05-13T05:12:32.735Z,852
2016-05-13T05:13:29.519Z,876
2016-05-13T05:14:32.647Z,896
2016-05-13T05:15:29.571Z,904
2016-05-13T05:16:35.558Z,916
2016-05-13T05:17:29.185Z,920
2016-05-13T05:18:29.298Z,924
2016-05-13T05:19:38.488Z,924
2016-05-13T05:20:29.538Z,924
2016-05-13T05:21:35.821Z,932
2016-05-13T05:22:32.278Z,944
2016-05-13T05:23:32.233Z,972
2016-05-13T05:24:29.159Z,992
2016-05-13T05:25:29.161Z,1004
2016-05-13T05:26:29.273Z,1012
2016-05-13T05:27:32.009Z,1020
2016-05-13T05:28:29.012Z,1032
2016-05-13T05:29:28.921Z,1040
2016-05-13T05:30:31.892Z,1048
2016-05-13T05:31:34.709Z,1056
2016-05-13T05:32:31.648Z,1060
2016-05-13T05:33:28.464Z,1060
2016-05-13T05:34:31.575Z,1076
2016-05-13T05:35:31.344Z,1084
2016-05-13T05:36:28.612Z,1096
2016-05-13T05:37:28.552Z,1104
2016-05-13T05:38:31.711Z,1116
2016-05-13T05:39:28.308Z,1128
2016-05-13T05:40:28.108Z,1136
2016-05-13T05:41:28.266Z,1148
2016-05-13T05:42:28.316Z,1156
2016-05-13T05:43:31.115Z,1168
2016-05-13T05:44:28.227Z,1176
2016-05-13T05:45:28.182Z,1184
2016-05-13T05:46:27.982Z,1192
2016-05-13T05:47:37.377Z,1204
2016-05-13T05:48:31.269Z,1216
2016-05-13T05:49:34.226Z,1228
2016-05-13T05:50:27.946Z,1236
2016-05-13T05:51:34.152Z,1240
2016-05-13T05:52:39.859Z,1248
2016-05-13T05:53:30.798Z,1256
2016-05-13T05:54:27.957Z,1264
2016-05-13T05:55:33.912Z,1272
2016-05-13T05:56:30.713Z,1280
2016-05-13T05:57:27.606Z,1288
2016-05-13T05:58:30.609Z,1296
2016-05-13T05:59:34.159Z,1308
2016-05-13T06:00:33.489Z,1320
2016-05-13T06:01:27.445Z,1324
2016-05-13T06:02:28.166Z,1336
2016-05-13T06:03:36.200Z,1348
2016-05-13T06:04:36.141Z,1360
2016-05-13T06:05:27.315Z,1372
2016-05-13T06:06:33.208Z,1384
2016-05-13T06:07:33.367Z,1388
2016-05-13T06:08:29.964Z,1392
2016-05-13T06:09:33.436Z,1396
2016-05-13T06:10:30.047Z,1400
2016-05-13T06:11:26.659Z,1400
2016-05-13T06:12:32.958Z,1396
2016-05-13T06:13:29.883Z,1396
2016-05-13T06:14:29.683Z,1392
2016-05-13T06:15:32.795Z,1392
2016-05-13T06:16:27.016Z,1388
2016-05-13T06:17:26.769Z,1388
2016-05-13T06:18:32.554Z,1388
2016-05-13T06:19:29.619Z,1396
2016-05-13T06:20:29.777Z,1404
2016-05-13T06:21:32.233Z,1412
2016-05-13T06:22:29.877Z,1412
2016-05-13T06:23:26.395Z,1396
2016-05-13T06:24:26.382Z,1412
2016-05-13T06:25:26.165Z,1420
2016-05-13T06:26:26.262Z,1416
2016-05-13T06:27:26.109Z,1428
2016-05-13T06:28:29.221Z,1432
2016-05-13T06:29:28.958Z,1436
2016-05-13T06:30:26.382Z,1440
2016-05-13T06:31:26.056Z,1356
2016-05-13T06:32:26.467Z,1268
2016-05-13T06:33:25.969Z,1288
2016-05-13T06:34:25.814Z,1316
2016-05-13T06:35:31.864Z,1316
2016-05-13T06:36:31.836Z,1332
2016-05-13T06:37:28.775Z,1428
2016-05-13T06:38:28.811Z,1508
2016-05-13T06:39:28.672Z,1556
2016-05-13T06:40:28.362Z,1576
2016-05-13T06:41:28.583Z,1584
2016-05-13T06:42:25.400Z,1600
2016-05-13T06:43:28.323Z,1616
2016-05-13T06:44:28.529Z,1632
2016-05-13T06:45:28.251Z,1600
2016-05-13T06:46:28.191Z,1628
2016-05-13T06:47:25.397Z,1556
2016-05-13T06:48:28.259Z,1652
2016-05-13T06:49:25.090Z,1544
2016-05-13T06:50:28.217Z,1376
2016-05-13T06:51:31.032Z,1412
2016-05-13T06:52:30.770Z,1508
2016-05-13T06:53:28.568Z,1676
2016-05-13T06:54:31.509Z,1492
2016-05-13T06:55:25.168Z,1340
2016-05-13T06:56:24.921Z,1604
2016-05-13T06:57:24.830Z,1648
2016-05-13T06:58:24.786Z,1348
2016-05-13T06:59:27.756Z,1404
2016-05-13T07:00:27.698Z,1628
2016-05-13T07:01:24.498Z,1560
2016-05-13T07:02:30.765Z,1648
2016-05-13T07:03:33.440Z,1616
2016-05-13T07:04:24.598Z,1684
2016-05-13T07:05:24.476Z,1476
2016-05-13T07:06:27.479Z,1772
2016-05-13T07:07:27.231Z,1820
2016-05-13T07:08:30.234Z,1936
2016-05-13T07:09:24.127Z,1996
2016-05-13T07:10:27.537Z,1556
2016-05-13T07:11:24.211Z,1740
2016-05-13T07:12:24.369Z,1900
2016-05-13T07:13:27.280Z,1708
2016-05-13T07:14:24.045Z,2100
2016-05-13T07:15:24.047Z,2056
2016-05-13T07:16:26.819Z,2128
2016-05-13T07:17:23.725Z,2156
2016-05-13T07:18:23.540Z,2176
2016-05-13T07:19:30.186Z,2196
2016-05-13T07:20:24.485Z,2212
2016-05-13T07:21:23.954Z,2232
2016-05-13T07:22:23.738Z,2248
2016-05-13T07:23:23.663Z,2264
2016-05-13T07:24:26.684Z,2280
2016-05-13T07:25:26.842Z,2288
2016-05-13T07:26:23.561Z,2296
2016-05-13T07:27:26.723Z,2296
2016-05-13T07:28:23.442Z,2296
2016-05-13T07:29:23.413Z,2300
2016-05-13T07:30:23.338Z,2296
2016-05-13T07:31:26.359Z,2316
2016-05-13T07:32:26.612Z,2332
2016-05-13T07:33:23.034Z,2360
2016-05-13T07:34:23.051Z,2388
2016-05-13T07:35:23.133Z,2416
2016-05-13T07:36:23.056Z,2440
2016-05-13T07:37:22.731Z,2460
2016-05-13T07:38:22.984Z,2476
2016-05-13T07:39:22.972Z,2484
2016-05-13T07:40:25.867Z,2484
2016-05-13T07:41:22.820Z,2480
2016-05-13T07:42:22.761Z,2480
2016-05-13T07:43:25.720Z,2472
2016-05-13T07:44:22.720Z,2480
2016-05-13T07:45:22.660Z,2476
2016-05-13T07:46:25.461Z,2472
2016-05-13T07:47:22.946Z,2476
2016-05-13T07:48:22.824Z,2472
2016-05-13T07:49:22.655Z,2472
2016-05-13T07:50:22.689Z,2472
2016-05-13T07:51:22.613Z,2464
2016-05-13T07:52:22.397Z,2464
2016-05-13T07:53:22.307Z,2456
2016-05-13T07:54:22.230Z,2452
2016-05-13T07:55:25.187Z,2448
2016-05-13T07:56:22.157Z,2452
2016-05-13T07:57:22.145Z,2456
2016-05-13T07:58:22.070Z,2456
2016-05-13T07:59:25.104Z,2480
2016-05-13T08:00:24.996Z,2476
2016-05-13T08:01:24.843Z,2488
2016-05-13T08:02:22.752Z,2508
2016-05-13T08:03:22.458Z,2528
2016-05-13T08:04:21.804Z,2412
2016-05-13T08:05:24.759Z,2568
2016-05-13T08:06:21.576Z,2452
2016-05-13T08:07:27.547Z,2648
2016-05-13T08:08:27.300Z,2592
2016-05-13T08:09:21.756Z,2724
2016-05-13T08:10:24.509Z,2760
2016-05-13T08:11:27.683Z,2820
2016-05-13T08:12:24.435Z,2872
2016-05-13T08:13:21.906Z,2900
2016-05-13T08:14:44.959Z,3020
2016-05-13T08:15:21.506Z,3092
2016-05-13T08:16:24.290Z,3208
2016-05-13T08:17:30.670Z,3220
2016-05-13T08:18:33.392Z,3188
2016-05-13T08:19:24.330Z,3068
2016-05-13T08:20:20.941Z,2992
2016-05-13T08:21:21.038Z,2884
2016-05-13T08:22:24.009Z,2848
2016-05-13T08:23:24.153Z,2676
2016-05-13T08:24:26.921Z,2768
2016-05-13T08:25:24.079Z,2384
2016-05-13T08:26:23.677Z,2680
2016-05-13T08:27:26.757Z,2628
2016-05-13T08:28:20.588Z,2536
2016-05-13T08:29:32.687Z,2892
2016-05-13T08:30:35.659Z,2676
2016-05-13T08:31:26.612Z,2796
2016-05-13T08:32:23.536Z,2980
2016-05-13T08:33:29.542Z,2932
2016-05-13T08:34:26.292Z,3044
2016-05-13T08:35:20.840Z,3044
2016-05-13T08:36:23.375Z,3148
2016-05-13T08:37:20.753Z,2968
2016-05-13T08:38:23.318Z,2440
2016-05-13T08:39:20.446Z,2992
2016-05-13T08:40:20.401Z,2776
2016-05-13T08:41:20.154Z,2632
2016-05-13T08:42:20.125Z,2532
2016-05-13T08:43:20.222Z,2224
2016-05-13T08:44:20.037Z,2636
2016-05-13T08:45:23.008Z,2568
2016-05-13T08:46:23.120Z,2308
2016-05-13T08:47:20.108Z,2556
2016-05-13T08:48:23.564Z,2308
2016-05-13T08:49:25.894Z,2388
2016-05-13T08:50:19.741Z,2296
2016-05-13T08:51:19.696Z,2436
2016-05-13T08:52:19.699Z,2108
2016-05-13T08:53:34.939Z,2056
2016-05-13T08:54:25.580Z,1884
2016-05-13T08:55:25.519Z,2252
2016-05-13T08:56:31.541Z,2252
2016-05-13T08:57:19.713Z,2120
2016-05-13T08:58:25.887Z,2212
2016-05-13T08:59:28.796Z,2288
2016-05-13T09:00:34.724Z,2296
2016-05-13T09:01:31.132Z,2236
2016-05-13T09:02:22.101Z,2140
2016-05-13T09:03:28.057Z,2120
2016-05-13T09:04:28.168Z,2120
2016-05-13T09:05:19.078Z,2092
2016-05-13T09:06:22.440Z,2160
2016-05-13T09:07:22.255Z,2148
2016-05-13T09:08:21.773Z,2240
2016-05-13T09:09:22.089Z,2208
2016-05-13T09:10:21.857Z,2320
2016-05-13T09:11:19.062Z,2340
2016-05-13T09:12:24.644Z,2408
2016-05-13T09:13:21.756Z,2524
2016-05-13T09:14:22.118Z,2612
2016-05-13T09:15:21.730Z,2692
2016-05-13T09:16:18.608Z,2756
2016-05-13T09:17:21.563Z,2820
2016-05-13T09:18:18.456Z,2840
2016-05-13T09:19:18.475Z,2860
2016-05-13T09:20:18.447Z,2868
2016-05-13T09:21:18.386Z,2864
2016-05-13T09:22:18.530Z,2860
2016-05-13T09:23:18.408Z,2848
2016-05-13T09:24:18.238Z,2848
2016-05-13T09:25:18.241Z,2840
2016-05-13T09:26:18.182Z,2840
2016-05-13T09:27:18.216Z,2840
2016-05-13T09:28:18.280Z,2840
2016-05-13T09:29:17.846Z,2852
2016-05-13T09:30:17.957Z,2852
2016-05-13T09:31:18.085Z,2856
2016-05-13T09:32:20.713Z,2868
2016-05-13T09:33:17.826Z,2864
2016-05-13T09:34:17.859Z,2860
2016-05-13T09:35:17.456Z,2860
2016-05-13T09:36:17.802Z,2852
2016-05-13T09:37:20.679Z,2872
2016-05-13T09:38:23.714Z,2864
2016-05-13T09:39:17.684Z,2888
2016-05-13T09:40:20.548Z,2896
2016-05-13T09:41:17.534Z,2908
2016-05-13T09:42:20.459Z,2932
2016-05-13T09:43:27.539Z,2948
2016-05-13T09:44:18.214Z,2964
2016-05-13T09:45:20.279Z,2996
2016-05-13T09:46:23.203Z,2992
2016-05-13T09:47:29.191Z,3008
2016-05-13T09:48:20.428Z,3024
2016-05-13T09:49:22.118Z,3032
2016-05-13T09:50:17.089Z,3052
2016-05-13T09:51:23.077Z,3100
2016-05-13T09:52:23.422Z,3136
2016-05-13T09:53:16.988Z,3204
2016-05-13T09:54:16.897Z,3312
2016-05-13T09:55:19.915Z,3436
2016-05-13T09:56:17.246Z,3532
2016-05-13T09:57:16.780Z,3584
2016-05-13T09:58:16.923Z,3620
2016-05-13T09:59:19.724Z,3620
2016-05-13T10:00:16.694Z,3712
2016-05-13T10:01:19.666Z,3844
2016-05-13T10:02:19.559Z,4036
2016-05-13T10:03:19.859Z,4124
2016-05-13T10:04:16.705Z,4084
2016-05-13T10:05:16.848Z,3960
2016-05-13T10:06:20.054Z,3804
2016-05-13T10:07:16.542Z,3780
2016-05-13T10:08:19.375Z,3800
2016-05-13T10:09:16.593Z,3848
2016-05-13T10:10:16.341Z,3916
2016-05-13T10:11:16.809Z,3516
2016-05-13T10:12:19.463Z,3808
2016-05-13T10:13:16.357Z,3596
2016-05-13T10:14:16.640Z,3236
2016-05-13T10:15:16.611Z,3180
2016-05-13T10:16:16.753Z,3188
2016-05-13T10:17:16.491Z,3460
2016-05-13T10:18:23.364Z,3504
2016-05-13T10:19:16.231Z,3216
2016-05-13T10:20:16.786Z,3388
2016-05-13T10:21:16.247Z,3644
2016-05-13T10:22:16.255Z,3668
2016-05-13T10:23:31.153Z,3672
2016-05-13T10:24:16.453Z,3660
2016-05-13T10:25:15.912Z,3676
2016-05-13T10:26:16.010Z,3660
2016-05-13T10:27:18.828Z,3632
2016-05-13T10:28:19.659Z,3496
2016-05-13T10:29:15.616Z,3368
2016-05-13T10:30:18.900Z,3232
2016-05-13T10:31:15.731Z,3160
2016-05-13T10:32:18.735Z,3084
2016-05-13T10:33:16.411Z,3024
2016-05-13T10:34:21.398Z,3020
2016-05-13T10:35:15.479Z,3004
2016-05-13T10:36:19.717Z,2996
2016-05-13T10:37:15.251Z,3008
2016-05-13T10:38:15.425Z,3020
2016-05-13T10:39:15.163Z,3012
2016-05-13T10:40:18.259Z,3000
2016-05-13T10:41:15.059Z,2984
2016-05-13T10:42:18.452Z,2976
2016-05-13T10:43:21.142Z,2968
2016-05-13T10:44:14.942Z,2980
2016-05-13T10:45:17.897Z,2980
2016-05-13T10:46:18.525Z,2964
2016-05-13T10:47:14.965Z,2940
2016-05-13T10:48:15.702Z,2904
2016-05-13T10:49:14.908Z,2900
2016-05-13T10:50:14.865Z,2896
2016-05-13T10:51:20.680Z,2900
2016-05-13T10:52:14.433Z,2944
2016-05-13T10:53:14.701Z,2988
2016-05-13T10:54:14.703Z,3048
2016-05-13T10:55:14.612Z,3124
2016-05-13T10:56:14.584Z,3128
2016-05-13T10:57:14.398Z,3040
2016-05-13T10:58:17.496Z,2908
2016-05-13T10:59:14.748Z,2828
2016-05-13T11:00:23.437Z,2808
2016-05-13T11:01:17.206Z,2820
2016-05-13T11:02:17.209Z,2800
2016-05-13T11:03:14.337Z,2820
2016-05-13T11:04:16.980Z,2844
2016-05-13T11:05:14.217Z,2860
2016-05-13T11:06:17.486Z,2816
2016-05-13T11:07:23.316Z,2800
2016-05-13T11:08:17.053Z,2796
2016-05-13T11:09:14.025Z,2804
2016-05-13T11:10:14.200Z,2800
2016-05-13T11:11:17.139Z,2776
2016-05-13T11:12:25.986Z,2764
2016-05-13T11:13:13.895Z,2764
2016-05-13T11:14:16.850Z,2776
2016-05-13T11:15:16.760Z,2796
2016-05-13T11:16:13.980Z,2800
2016-05-13T11:17:13.702Z,2788
2016-05-13T11:18:14.768Z,2772
2016-05-13T11:19:16.802Z,2768
2016-05-13T11:20:14.726Z,2816
2016-05-13T11:21:16.354Z,2832
2016-05-13T11:22:16.154Z,2848
2016-05-13T11:23:19.469Z,2856
2016-05-13T11:24:13.565Z,2856
2016-05-13T11:25:13.255Z,2848
2016-05-13T11:26:13.165Z,2848
2016-05-13T11:27:24.635Z,2848
2016-05-13T11:28:16.092Z,2856
2016-05-13T11:29:13.001Z,2852
2016-05-13T11:30:13.128Z,2844
2016-05-13T11:31:17.537Z,2860
2016-05-13T11:32:13.024Z,2852
2016-05-13T11:33:16.073Z,2880
2016-05-13T11:34:13.358Z,2900
2016-05-13T11:35:15.798Z,2912
2016-05-13T11:36:12.769Z,2916
2016-05-13T11:37:12.506Z,2932
2016-05-13T11:38:12.994Z,2960
2016-05-13T11:39:12.590Z,2956
2016-05-13T11:40:12.733Z,3000
2016-05-13T11:41:19.377Z,3044
2016-05-13T11:42:12.691Z,3012
2016-05-13T11:43:12.788Z,2984
2016-05-13T11:44:12.525Z,3016
2016-05-13T11:45:12.652Z,3072
2016-05-13T11:46:12.452Z,3140
2016-05-13T11:47:12.471Z,3068
2016-05-13T11:48:16.255Z,3072
2016-05-13T11:49:15.524Z,3076
2016-05-13T11:50:12.464Z,3100
2016-05-13T11:51:12.232Z,3140
2016-05-13T11:52:12.218Z,3140
2016-05-13T11:53:15.924Z,3140
2016-05-13T11:54:12.615Z,3140
2016-05-13T11:55:18.102Z,3140
2016-05-13T11:56:15.010Z,3172
2016-05-13T11:57:12.357Z,3196
2016-05-13T11:58:17.094Z,3208
2016-05-13T11:59:11.893Z,3232
2016-05-13T12:00:11.849Z,3244
2016-05-13T12:01:12.117Z,3284
2016-05-13T12:02:17.840Z,3524
2016-05-13T12:03:14.795Z,3736
2016-05-13T12:04:11.704Z,3816
2016-05-13T12:05:14.957Z,3648
2016-05-13T12:06:14.787Z,3636
2016-05-13T12:07:23.587Z,4156
2016-05-13T12:08:11.450Z,4656
2016-05-13T12:09:17.655Z,4356
2016-05-13T12:10:14.455Z,3808
2016-05-13T12:11:14.395Z,3628
2016-05-13T12:12:14.366Z,4080
2016-05-13T12:13:14.228Z,4652
2016-05-13T12:14:11.293Z,4544
2016-05-13T12:16:14.017Z,4620
2016-05-13T12:17:10.974Z,4644
2016-05-13T12:18:11.022Z,4572
2016-05-13T12:19:14.197Z,4836
2016-05-13T12:20:11.044Z,5128
2016-05-13T12:21:13.969Z,5452
2016-05-13T12:22:10.846Z,5600
2016-05-13T12:23:10.974Z,5492
2016-05-13T12:24:10.757Z,4648
2016-05-13T12:25:10.871Z,4560
2016-05-13T12:26:14.576Z,4088
2016-05-13T12:27:10.579Z,2908
2016-05-13T12:28:14.504Z,3504
2016-05-13T12:29:19.927Z,3608
2016-05-13T12:30:13.618Z,3724
2016-05-13T12:31:13.699Z,4720
2016-05-13T12:32:10.607Z,4416
2016-05-13T12:33:10.501Z,3676
2016-05-13T12:34:10.832Z,3120
2016-05-13T12:35:16.881Z,3700
2016-05-13T12:36:13.962Z,3056
2016-05-13T12:37:13.653Z,3068
2016-05-13T12:38:13.576Z,3892
2016-05-13T12:39:10.065Z,3792
2016-05-13T12:40:13.176Z,3740
2016-05-13T12:41:10.163Z,3712
2016-05-13T12:42:13.370Z,3388
2016-05-13T12:43:13.059Z,3828
2016-05-13T12:44:10.062Z,4652
2016-05-13T12:45:10.034Z,4516
2016-05-13T12:46:12.927Z,4504
2016-05-13T12:47:13.836Z,4036
2016-05-13T12:48:10.432Z,3212
2016-05-13T12:49:15.825Z,3196
2016-05-13T12:50:09.828Z,4048
2016-05-13T12:51:12.721Z,4020
2016-05-13T12:52:09.724Z,4112
2016-05-13T12:53:12.946Z,4320
2016-05-13T12:54:09.651Z,4764
2016-05-13T12:55:12.622Z,5068
2016-05-13T12:56:09.531Z,5084
2016-05-13T12:57:09.471Z,5272
2016-05-13T12:58:09.427Z,4568
2016-05-13T12:59:09.868Z,4228
2016-05-13T13:00:09.354Z,4140
2016-05-13T13:01:09.763Z,3892
2016-05-13T13:02:09.282Z,4876
2016-05-13T13:03:09.441Z,4460
2016-05-13T13:04:10.412Z,5272
2016-05-13T13:05:09.509Z,5432
2016-05-13T13:06:09.199Z,6096
2016-05-13T13:07:08.905Z,5364
2016-05-13T13:08:09.032Z,4948
2016-05-13T13:09:12.020Z,4428
2016-05-13T13:10:09.570Z,3396
2016-05-13T13:11:08.744Z,3336
2016-05-13T13:12:08.981Z,3348
2016-05-13T13:13:08.827Z,3720
2016-05-13T13:14:08.783Z,4872
2016-05-13T13:15:08.739Z,5880
2016-05-13T13:16:11.914Z,6176
2016-05-13T13:17:11.978Z,6308
2016-05-13T13:18:12.216Z,6660
2016-05-13T13:19:14.874Z,5368
2016-05-13T13:20:08.283Z,4092
2016-05-13T13:21:08.459Z,3268
2016-05-13T13:22:11.445Z,2908
2016-05-13T13:23:17.244Z,2908
2016-05-13T13:24:11.419Z,3268
2016-05-13T13:25:08.234Z,3600
2016-05-13T13:26:08.113Z,5416
2016-05-13T13:27:08.225Z,6604
2016-05-13T13:28:11.461Z,6388
2016-05-13T13:29:08.167Z,4844
2016-05-13T13:30:08.124Z,4580
2016-05-13T13:31:10.938Z,4292
2016-05-13T13:32:07.846Z,4404
2016-05-13T13:33:08.100Z,4140
2016-05-13T13:34:10.977Z,5032
2016-05-13T13:35:10.762Z,5256
2016-05-13T13:36:16.873Z,4996
2016-05-13T13:37:07.845Z,5648
2016-05-13T13:38:07.770Z,4272
2016-05-13T13:39:10.648Z,4652
2016-05-13T13:40:13.743Z,4728
2016-05-13T13:41:07.512Z,6112
2016-05-13T13:42:16.656Z,7396
2016-05-13T13:43:10.642Z,8424
2016-05-13T13:44:07.739Z,7900
2016-05-13T13:45:08.007Z,6876